sensor_id;sensor_type;location;lat;lon;timestamp;temperature;humidity
17452;DHT22;8843;48.838;9.324;2024-01-30T00:00:37;7.20;90.90
17452;DHT22;8843;48.838;9.324;2024-01-30T00:03:04;7.20;90.90
17452;DHT22;8843;48.838;9.324;2024-01-30T00:05:31;7.20;90.90
17452;DHT22;8843;48.838;9.324;2024-01-30T00:07:59;7.20;90.90
17452;DHT22;8843;48.838;9.324;2024-01-30T00:10:26;7.20;90.90
17452;DHT22;8843;48.838;9.324;2024-01-30T00:12:53;7.10;90.80
17452;DHT22;8843;48.838;9.324;2024-01-30T00:15:20;7.20;90.90
17452;DHT22;8843;48.838;9.324;2024-01-30T00:17:47;7.20;90.90
17452;DHT22;8843;48.838;9.324;2024-01-30T00:20:13;7.20;90.80
17452;DHT22;8843;48.838;9.324;2024-01-30T00:22:40;7.20;90.80
17452;DHT22;8843;48.838;9.324;2024-01-30T00:25:09;7.20;91.20
17452;DHT22;8843;48.838;9.324;2024-01-30T00:27:36;7.20;90.90
17452;DHT22;8843;48.838;9.324;2024-01-30T00:30:03;7.20;90.80
17452;DHT22;8843;48.838;9.324;2024-01-30T00:32:30;7.20;90.80
17452;DHT22;8843;48.838;9.324;2024-01-30T00:34:57;7.10;90.80
17452;DHT22;8843;48.838;9.324;2024-01-30T00:37:24;7.10;90.80
17452;DHT22;8843;48.838;9.324;2024-01-30T00:39:51;7.10;90.80
17452;DHT22;8843;48.838;9.324;2024-01-30T00:42:19;7.10;90.80
17452;DHT22;8843;48.838;9.324;2024-01-30T00:44:46;7.10;90.80
17452;DHT22;8843;48.838;9.324;2024-01-30T00:47:13;7.10;90.80
17452;DHT22;8843;48.838;9.324;2024-01-30T00:49:40;7.10;90.80
17452;DHT22;8843;48.838;9.324;2024-01-30T00:52:07;7.10;90.80
17452;DHT22;8843;48.838;9.324;2024-01-30T00:54:34;7.10;90.80
17452;DHT22;8843;48.838;9.324;2024-01-30T00:57:00;7.10;90.80
17452;DHT22;8843;48.838;9.324;2024-01-30T00:59:29;7.10;90.80
17452;DHT22;8843;48.838;9.324;2024-01-30T01:01:55;7.00;90.80
17452;DHT22;8843;48.838;9.324;2024-01-30T01:04:22;7.10;90.80
17452;DHT22;8843;48.838;9.324;2024-01-30T01:06:49;7.10;90.80
17452;DHT22;8843;48.838;9.324;2024-01-30T01:09:16;7.10;90.80
17452;DHT22;8843;48.838;9.324;2024-01-30T01:11:43;7.10;90.80
17452;DHT22;8843;48.838;9.324;2024-01-30T01:14:10;7.10;90.80
17452;DHT22;8843;48.838;9.324;2024-01-30T01:16:38;7.10;90.80
17452;DHT22;8843;48.838;9.324;2024-01-30T01:19:05;7.10;90.80
17452;DHT22;8843;48.838;9.324;2024-01-30T01:21:32;7.00;90.80
17452;DHT22;8843;48.838;9.324;2024-01-30T01:23:59;7.00;90.80
17452;DHT22;8843;48.838;9.324;2024-01-30T01:26:26;7.00;90.80
17452;DHT22;8843;48.838;9.324;2024-01-30T01:28:52;7.00;91.10
17452;DHT22;8843;48.838;9.324;2024-01-30T01:31:19;7.00;90.80
17452;DHT22;8843;48.838;9.324;2024-01-30T01:33:51;7.00;90.80
17452;DHT22;8843;48.838;9.324;2024-01-30T01:36:18;7.00;90.80
17452;DHT22;8843;48.838;9.324;2024-01-30T01:38:45;7.00;90.80
17452;DHT22;8843;48.838;9.324;2024-01-30T01:41:12;7.00;90.80
17452;DHT22;8843;48.838;9.324;2024-01-30T01:43:39;7.00;90.80
17452;DHT22;8843;48.838;9.324;2024-01-30T01:46:06;7.00;90.80
17452;DHT22;8843;48.838;9.324;2024-01-30T01:48:33;7.00;90.80
17452;DHT22;8843;48.838;9.324;2024-01-30T01:51:02;7.00;90.80
17452;DHT22;8843;48.838;9.324;2024-01-30T01:53:29;7.00;90.80
17452;DHT22;8843;48.838;9.324;2024-01-30T01:55:56;7.00;90.80
17452;DHT22;8843;48.838;9.324;2024-01-30T01:58:26;7.00;90.80
17452;DHT22;8843;48.838;9.324;2024-01-30T02:00:54;7.00;90.80
17452;DHT22;8843;48.838;9.324;2024-01-30T02:03:22;7.00;90.80
17452;DHT22;8843;48.838;9.324;2024-01-30T02:05:50;7.00;90.80
17452;DHT22;8843;48.838;9.324;2024-01-30T02:08:19;7.00;90.80
17452;DHT22;8843;48.838;9.324;2024-01-30T02:10:45;7.00;90.80
17452;DHT22;8843;48.838;9.324;2024-01-30T02:13:13;7.00;90.80
17452;DHT22;8843;48.838;9.324;2024-01-30T02:15:40;7.00;90.80
17452;DHT22;8843;48.838;9.324;2024-01-30T02:18:06;7.00;91.20
17452;DHT22;8843;48.838;9.324;2024-01-30T02:20:35;7.00;90.80
17452;DHT22;8843;48.838;9.324;2024-01-30T02:23:04;7.00;90.80
17452;DHT22;8843;48.838;9.324;2024-01-30T02:25:35;7.00;90.80
17452;DHT22;8843;48.838;9.324;2024-01-30T02:28:02;7.00;90.80
17452;DHT22;8843;48.838;9.324;2024-01-30T02:30:29;7.00;90.80
17452;DHT22;8843;48.838;9.324;2024-01-30T02:32:56;6.90;90.70
17452;DHT22;8843;48.838;9.324;2024-01-30T02:35:23;7.00;90.80
17452;DHT22;8843;48.838;9.324;2024-01-30T02:37:50;6.90;90.80
17452;DHT22;8843;48.838;9.324;2024-01-30T02:40:18;6.90;90.80
17452;DHT22;8843;48.838;9.324;2024-01-30T02:42:45;6.90;91.10
17452;DHT22;8843;48.838;9.324;2024-01-30T02:45:13;6.90;90.80
17452;DHT22;8843;48.838;9.324;2024-01-30T02:47:40;6.90;90.70
17452;DHT22;8843;48.838;9.324;2024-01-30T02:50:08;6.90;90.80
17452;DHT22;8843;48.838;9.324;2024-01-30T02:52:35;6.90;90.80
17452;DHT22;8843;48.838;9.324;2024-01-30T02:55:02;6.90;90.80
17452;DHT22;8843;48.838;9.324;2024-01-30T02:57:30;6.90;90.80
17452;DHT22;8843;48.838;9.324;2024-01-30T02:59:57;6.90;90.80
17452;DHT22;8843;48.838;9.324;2024-01-30T03:02:24;6.90;90.70
17452;DHT22;8843;48.838;9.324;2024-01-30T03:04:51;6.90;90.80
17452;DHT22;8843;48.838;9.324;2024-01-30T03:07:18;6.90;90.80
17452;DHT22;8843;48.838;9.324;2024-01-30T03:09:44;6.90;90.80
17452;DHT22;8843;48.838;9.324;2024-01-30T03:12:11;6.90;90.70
17452;DHT22;8843;48.838;9.324;2024-01-30T03:14:39;6.90;90.80
17452;DHT22;8843;48.838;9.324;2024-01-30T03:17:06;6.90;90.70
17452;DHT22;8843;48.838;9.324;2024-01-30T03:19:33;6.90;90.80
17452;DHT22;8843;48.838;9.324;2024-01-30T03:22:00;6.90;90.80
17452;DHT22;8843;48.838;9.324;2024-01-30T03:24:27;6.90;90.80
17452;DHT22;8843;48.838;9.324;2024-01-30T03:26:54;6.90;90.80
17452;DHT22;8843;48.838;9.324;2024-01-30T03:29:21;6.80;90.70
17452;DHT22;8843;48.838;9.324;2024-01-30T03:31:49;6.90;90.80
17452;DHT22;8843;48.838;9.324;2024-01-30T03:34:16;6.90;90.80
17452;DHT22;8843;48.838;9.324;2024-01-30T03:36:42;6.90;90.80
17452;DHT22;8843;48.838;9.324;2024-01-30T03:39:09;6.90;90.80
17452;DHT22;8843;48.838;9.324;2024-01-30T03:41:36;6.90;90.80
17452;DHT22;8843;48.838;9.324;2024-01-30T03:44:03;6.80;90.70
17452;DHT22;8843;48.838;9.324;2024-01-30T03:46:30;6.90;90.80
17452;DHT22;8843;48.838;9.324;2024-01-30T03:48:58;6.80;90.70
17452;DHT22;8843;48.838;9.324;2024-01-30T03:51:25;6.80;90.70
17452;DHT22;8843;48.838;9.324;2024-01-30T03:53:52;6.80;90.70
17452;DHT22;8843;48.838;9.324;2024-01-30T03:56:19;6.80;90.70
17452;DHT22;8843;48.838;9.324;2024-01-30T03:58:45;6.80;90.70
17452;DHT22;8843;48.838;9.324;2024-01-30T04:01:13;6.80;90.70
17452;DHT22;8843;48.838;9.324;2024-01-30T04:03:41;6.80;90.70
17452;DHT22;8843;48.838;9.324;2024-01-30T04:06:10;6.80;90.70
17452;DHT22;8843;48.838;9.324;2024-01-30T04:08:38;6.80;90.70
17452;DHT22;8843;48.838;9.324;2024-01-30T04:11:05;6.80;90.70
17452;DHT22;8843;48.838;9.324;2024-01-30T04:13:32;6.80;90.70
17452;DHT22;8843;48.838;9.324;2024-01-30T04:15:59;6.80;90.70
17452;DHT22;8843;48.838;9.324;2024-01-30T04:18:27;6.80;90.70
17452;DHT22;8843;48.838;9.324;2024-01-30T04:20:54;6.80;90.80
17452;DHT22;8843;48.838;9.324;2024-01-30T04:23:22;6.80;90.70
17452;DHT22;8843;48.838;9.324;2024-01-30T04:25:49;6.80;91.10
17452;DHT22;8843;48.838;9.324;2024-01-30T04:28:15;6.80;90.70
17452;DHT22;8843;48.838;9.324;2024-01-30T04:30:42;6.80;90.70
17452;DHT22;8843;48.838;9.324;2024-01-30T04:33:10;6.80;90.70
17452;DHT22;8843;48.838;9.324;2024-01-30T04:35:37;6.80;90.70
17452;DHT22;8843;48.838;9.324;2024-01-30T04:38:04;6.80;90.70
17452;DHT22;8843;48.838;9.324;2024-01-30T04:40:32;6.80;90.70
17452;DHT22;8843;48.838;9.324;2024-01-30T04:42:59;6.80;90.70
17452;DHT22;8843;48.838;9.324;2024-01-30T04:45:26;6.80;90.70
17452;DHT22;8843;48.838;9.324;2024-01-30T04:47:53;6.70;90.60
17452;DHT22;8843;48.838;9.324;2024-01-30T04:50:19;6.70;91.00
17452;DHT22;8843;48.838;9.324;2024-01-30T04:52:46;6.70;90.60
17452;DHT22;8843;48.838;9.324;2024-01-30T04:55:13;6.80;90.70
17452;DHT22;8843;48.838;9.324;2024-01-30T04:57:41;6.70;90.60
17452;DHT22;8843;48.838;9.324;2024-01-30T05:00:10;6.70;91.00
17452;DHT22;8843;48.838;9.324;2024-01-30T05:02:38;6.70;90.60
17452;DHT22;8843;48.838;9.324;2024-01-30T05:05:05;6.70;90.60
17452;DHT22;8843;48.838;9.324;2024-01-30T05:07:32;6.70;90.60
17452;DHT22;8843;48.838;9.324;2024-01-30T05:09:59;6.70;90.60
17452;DHT22;8843;48.838;9.324;2024-01-30T05:12:26;6.70;90.60
17452;DHT22;8843;48.838;9.324;2024-01-30T05:14:55;6.70;90.60
17452;DHT22;8843;48.838;9.324;2024-01-30T05:17:21;6.70;90.60
17452;DHT22;8843;48.838;9.324;2024-01-30T05:19:48;6.70;90.60
17452;DHT22;8843;48.838;9.324;2024-01-30T05:22:15;6.70;90.60
17452;DHT22;8843;48.838;9.324;2024-01-30T05:24:44;6.70;90.60
17452;DHT22;8843;48.838;9.324;2024-01-30T05:27:11;6.70;90.60
17452;DHT22;8843;48.838;9.324;2024-01-30T05:29:39;6.70;90.60
17452;DHT22;8843;48.838;9.324;2024-01-30T05:32:07;6.70;90.60
17452;DHT22;8843;48.838;9.324;2024-01-30T05:34:35;6.70;90.70
17452;DHT22;8843;48.838;9.324;2024-01-30T05:37:02;6.70;90.60
17452;DHT22;8843;48.838;9.324;2024-01-30T05:39:29;6.70;90.60
17452;DHT22;8843;48.838;9.324;2024-01-30T05:41:58;6.70;90.60
17452;DHT22;8843;48.838;9.324;2024-01-30T05:44:25;6.70;90.60
17452;DHT22;8843;48.838;9.324;2024-01-30T05:46:52;6.70;90.60
17452;DHT22;8843;48.838;9.324;2024-01-30T05:49:20;6.70;90.60
17452;DHT22;8843;48.838;9.324;2024-01-30T05:51:47;6.70;90.60
17452;DHT22;8843;48.838;9.324;2024-01-30T05:54:14;6.70;90.60
17452;DHT22;8843;48.838;9.324;2024-01-30T05:56:41;6.70;90.60
17452;DHT22;8843;48.838;9.324;2024-01-30T05:59:07;6.70;90.60
17452;DHT22;8843;48.838;9.324;2024-01-30T06:01:34;6.70;90.70
17452;DHT22;8843;48.838;9.324;2024-01-30T06:04:01;6.60;90.60
17452;DHT22;8843;48.838;9.324;2024-01-30T06:06:29;6.60;90.70
17452;DHT22;8843;48.838;9.324;2024-01-30T06:08:56;7.10;92.30
17452;DHT22;8843;48.838;9.324;2024-01-30T06:11:23;7.30;91.20
17452;DHT22;8843;48.838;9.324;2024-01-30T06:13:50;7.00;90.10
17452;DHT22;8843;48.838;9.324;2024-01-30T06:16:17;6.90;90.00
17452;DHT22;8843;48.838;9.324;2024-01-30T06:18:45;6.80;90.30
17452;DHT22;8843;48.838;9.324;2024-01-30T06:21:12;6.70;90.80
17452;DHT22;8843;48.838;9.324;2024-01-30T06:23:40;7.60;94.10
17452;DHT22;8843;48.838;9.324;2024-01-30T06:26:07;8.50;90.60
17452;DHT22;8843;48.838;9.324;2024-01-30T06:28:34;8.40;84.70
17452;DHT22;8843;48.838;9.324;2024-01-30T06:31:01;7.80;87.40
17452;DHT22;8843;48.838;9.324;2024-01-30T06:33:28;7.30;87.60
17452;DHT22;8843;48.838;9.324;2024-01-30T06:35:55;7.00;87.50
17452;DHT22;8843;48.838;9.324;2024-01-30T06:38:21;6.80;88.00
17452;DHT22;8843;48.838;9.324;2024-01-30T06:40:50;6.70;89.10
17452;DHT22;8843;48.838;9.324;2024-01-30T06:43:16;6.60;88.80
17452;DHT22;8843;48.838;9.324;2024-01-30T06:45:43;6.60;89.00
17452;DHT22;8843;48.838;9.324;2024-01-30T06:48:10;6.50;89.00
17452;DHT22;8843;48.838;9.324;2024-01-30T06:50:37;6.50;89.20
17452;DHT22;8843;48.838;9.324;2024-01-30T06:53:04;6.50;89.20
17452;DHT22;8843;48.838;9.324;2024-01-30T06:55:31;6.50;89.40
17452;DHT22;8843;48.838;9.324;2024-01-30T06:57:59;6.50;89.50
17452;DHT22;8843;48.838;9.324;2024-01-30T07:00:26;6.50;89.50
17452;DHT22;8843;48.838;9.324;2024-01-30T07:02:53;6.50;89.60
17452;DHT22;8843;48.838;9.324;2024-01-30T07:05:19;6.50;89.60
17452;DHT22;8843;48.838;9.324;2024-01-30T07:07:47;6.40;90.20
17452;DHT22;8843;48.838;9.324;2024-01-30T07:10:14;6.50;89.80
17452;DHT22;8843;48.838;9.324;2024-01-30T07:12:41;6.50;90.00
17452;DHT22;8843;48.838;9.324;2024-01-30T07:15:10;6.50;89.70
17452;DHT22;8843;48.838;9.324;2024-01-30T07:17:37;6.50;89.80
17452;DHT22;8843;48.838;9.324;2024-01-30T07:20:05;6.40;89.70
17452;DHT22;8843;48.838;9.324;2024-01-30T07:22:33;6.40;89.80
17452;DHT22;8843;48.838;9.324;2024-01-30T07:25:00;6.40;89.90
17452;DHT22;8843;48.838;9.324;2024-01-30T07:27:27;6.40;89.90
17452;DHT22;8843;48.838;9.324;2024-01-30T07:29:53;6.40;89.90
17452;DHT22;8843;48.838;9.324;2024-01-30T07:32:22;6.40;90.30
17452;DHT22;8843;48.838;9.324;2024-01-30T07:34:49;6.40;90.00
17452;DHT22;8843;48.838;9.324;2024-01-30T07:37:16;6.50;90.00
17452;DHT22;8843;48.838;9.324;2024-01-30T07:39:43;6.40;90.00
17452;DHT22;8843;48.838;9.324;2024-01-30T07:42:10;6.40;90.10
17452;DHT22;8843;48.838;9.324;2024-01-30T07:44:37;6.40;90.10
17452;DHT22;8843;48.838;9.324;2024-01-30T07:47:05;6.40;90.10
17452;DHT22;8843;48.838;9.324;2024-01-30T07:49:34;6.40;90.10
17452;DHT22;8843;48.838;9.324;2024-01-30T07:52:01;6.40;90.10
17452;DHT22;8843;48.838;9.324;2024-01-30T07:54:31;6.40;90.20
17452;DHT22;8843;48.838;9.324;2024-01-30T07:56:59;6.40;90.20
17452;DHT22;8843;48.838;9.324;2024-01-30T07:59:25;6.40;90.20
17452;DHT22;8843;48.838;9.324;2024-01-30T08:01:52;6.40;90.20
17452;DHT22;8843;48.838;9.324;2024-01-30T08:04:19;6.40;90.60
17452;DHT22;8843;48.838;9.324;2024-01-30T08:06:48;6.40;90.20
17452;DHT22;8843;48.838;9.324;2024-01-30T08:09:15;6.40;90.20
17452;DHT22;8843;48.838;9.324;2024-01-30T08:11:41;6.40;90.30
17452;DHT22;8843;48.838;9.324;2024-01-30T08:14:08;6.40;90.30
17452;DHT22;8843;48.838;9.324;2024-01-30T08:16:35;6.40;90.30
17452;DHT22;8843;48.838;9.324;2024-01-30T08:19:02;6.40;90.30
17452;DHT22;8843;48.838;9.324;2024-01-30T08:21:29;6.40;90.30
17452;DHT22;8843;48.838;9.324;2024-01-30T08:24:03;6.40;90.40
17452;DHT22;8843;48.838;9.324;2024-01-30T08:26:30;6.40;90.40
17452;DHT22;8843;48.838;9.324;2024-01-30T08:28:57;6.40;90.70
17452;DHT22;8843;48.838;9.324;2024-01-30T08:31:24;6.40;90.40
17452;DHT22;8843;48.838;9.324;2024-01-30T08:33:51;6.40;90.80
17452;DHT22;8843;48.838;9.324;2024-01-30T08:36:18;6.40;90.50
17452;DHT22;8843;48.838;9.324;2024-01-30T08:38:45;6.40;90.50
17452;DHT22;8843;48.838;9.324;2024-01-30T08:41:13;6.40;90.50
17452;DHT22;8843;48.838;9.324;2024-01-30T08:43:40;6.40;90.60
17452;DHT22;8843;48.838;9.324;2024-01-30T08:46:07;6.40;90.60
17452;DHT22;8843;48.838;9.324;2024-01-30T08:48:35;6.40;90.60
17452;DHT22;8843;48.838;9.324;2024-01-30T08:51:02;6.40;90.60
17452;DHT22;8843;48.838;9.324;2024-01-30T08:53:33;6.40;90.70
17452;DHT22;8843;48.838;9.324;2024-01-30T08:56:01;6.40;90.70
17452;DHT22;8843;48.838;9.324;2024-01-30T08:58:29;6.40;91.00
17452;DHT22;8843;48.838;9.324;2024-01-30T09:00:56;6.40;90.70
17452;DHT22;8843;48.838;9.324;2024-01-30T09:03:23;6.40;90.80
17452;DHT22;8843;48.838;9.324;2024-01-30T09:05:50;6.40;90.80
17452;DHT22;8843;48.838;9.324;2024-01-30T09:08:17;6.40;90.80
17452;DHT22;8843;48.838;9.324;2024-01-30T09:10:43;6.40;91.20
17452;DHT22;8843;48.838;9.324;2024-01-30T09:13:11;6.40;90.90
17452;DHT22;8843;48.838;9.324;2024-01-30T09:15:40;6.40;90.90
17452;DHT22;8843;48.838;9.324;2024-01-30T09:18:07;6.40;90.90
17452;DHT22;8843;48.838;9.324;2024-01-30T09:20:34;6.40;90.90
17452;DHT22;8843;48.838;9.324;2024-01-30T09:23:00;6.40;90.90
17452;DHT22;8843;48.838;9.324;2024-01-30T09:25:27;6.40;91.00
17452;DHT22;8843;48.838;9.324;2024-01-30T09:27:54;6.40;91.00
17452;DHT22;8843;48.838;9.324;2024-01-30T09:30:21;6.40;91.40
17452;DHT22;8843;48.838;9.324;2024-01-30T09:32:49;6.40;91.10
17452;DHT22;8843;48.838;9.324;2024-01-30T09:35:16;6.40;91.00
17452;DHT22;8843;48.838;9.324;2024-01-30T09:37:43;6.40;91.10
17452;DHT22;8843;48.838;9.324;2024-01-30T09:40:10;6.40;91.10
17452;DHT22;8843;48.838;9.324;2024-01-30T09:42:37;6.40;91.10
17452;DHT22;8843;48.838;9.324;2024-01-30T09:45:05;6.40;91.20
17452;DHT22;8843;48.838;9.324;2024-01-30T09:47:32;6.40;91.20
17452;DHT22;8843;48.838;9.324;2024-01-30T09:50:06;6.40;91.20
17452;DHT22;8843;48.838;9.324;2024-01-30T09:52:33;6.40;91.30
17452;DHT22;8843;48.838;9.324;2024-01-30T09:55:01;6.40;91.30
17452;DHT22;8843;48.838;9.324;2024-01-30T09:57:28;6.40;91.40
17452;DHT22;8843;48.838;9.324;2024-01-30T09:59:55;6.40;91.90
17452;DHT22;8843;48.838;9.324;2024-01-30T10:02:22;6.40;91.90
17452;DHT22;8843;48.838;9.324;2024-01-30T10:04:50;6.50;92.80
17452;DHT22;8843;48.838;9.324;2024-01-30T10:07:19;6.50;92.50
17452;DHT22;8843;48.838;9.324;2024-01-30T10:09:46;6.60;92.50
17452;DHT22;8843;48.838;9.324;2024-01-30T10:12:15;6.60;92.40
17452;DHT22;8843;48.838;9.324;2024-01-30T10:14:42;6.60;92.30
17452;DHT22;8843;48.838;9.324;2024-01-30T10:17:10;6.60;92.50
17452;DHT22;8843;48.838;9.324;2024-01-30T10:19:37;6.60;91.90
17452;DHT22;8843;48.838;9.324;2024-01-30T10:22:04;6.70;92.50
17452;DHT22;8843;48.838;9.324;2024-01-30T10:24:33;6.70;92.70
17452;DHT22;8843;48.838;9.324;2024-01-30T10:27:00;6.80;92.30
17452;DHT22;8843;48.838;9.324;2024-01-30T10:29:28;6.80;92.40
17452;DHT22;8843;48.838;9.324;2024-01-30T10:31:58;6.80;92.10
17452;DHT22;8843;48.838;9.324;2024-01-30T10:34:26;6.80;92.40
17452;DHT22;8843;48.838;9.324;2024-01-30T10:37:07;6.90;92.10
17452;DHT22;8843;48.838;9.324;2024-01-30T10:39:39;6.90;92.30
17452;DHT22;8843;48.838;9.324;2024-01-30T10:42:07;7.00;92.60
17452;DHT22;8843;48.838;9.324;2024-01-30T10:44:43;7.00;92.20
17452;DHT22;8843;48.838;9.324;2024-01-30T10:47:12;7.10;92.10
17452;DHT22;8843;48.838;9.324;2024-01-30T10:49:41;7.10;92.00
17452;DHT22;8843;48.838;9.324;2024-01-30T10:52:09;7.20;92.00
17452;DHT22;8843;48.838;9.324;2024-01-30T10:54:39;7.20;92.10
17452;DHT22;8843;48.838;9.324;2024-01-30T10:57:07;7.20;92.10
17452;DHT22;8843;48.838;9.324;2024-01-30T10:59:36;7.30;92.00
17452;DHT22;8843;48.838;9.324;2024-01-30T11:02:03;7.30;92.20
17452;DHT22;8843;48.838;9.324;2024-01-30T11:04:36;7.30;92.00
17452;DHT22;8843;48.838;9.324;2024-01-30T11:07:03;7.40;92.10
17452;DHT22;8843;48.838;9.324;2024-01-30T11:09:47;7.40;92.20
17452;DHT22;8843;48.838;9.324;2024-01-30T11:12:14;7.40;92.20
17452;DHT22;8843;48.838;9.324;2024-01-30T11:14:41;7.40;92.20
17452;DHT22;8843;48.838;9.324;2024-01-30T11:17:09;7.40;92.10
17452;DHT22;8843;48.838;9.324;2024-01-30T11:19:38;7.40;92.20
17452;DHT22;8843;48.838;9.324;2024-01-30T11:22:06;7.40;92.50
17452;DHT22;8843;48.838;9.324;2024-01-30T11:24:40;7.50;92.40
17452;DHT22;8843;48.838;9.324;2024-01-30T11:27:12;7.50;92.10
17452;DHT22;8843;48.838;9.324;2024-01-30T11:29:40;7.60;92.10
17452;DHT22;8843;48.838;9.324;2024-01-30T11:32:07;7.50;92.30
17452;DHT22;8843;48.838;9.324;2024-01-30T11:34:34;7.40;92.50
17452;DHT22;8843;48.838;9.324;2024-01-30T11:37:04;7.50;93.10
17452;DHT22;8843;48.838;9.324;2024-01-30T11:39:36;7.50;92.90
17452;DHT22;8843;48.838;9.324;2024-01-30T11:42:07;7.60;92.80
17452;DHT22;8843;48.838;9.324;2024-01-30T11:44:35;7.60;92.80
17452;DHT22;8843;48.838;9.324;2024-01-30T11:47:03;7.70;93.30
17452;DHT22;8843;48.838;9.324;2024-01-30T11:49:30;7.80;92.70
17452;DHT22;8843;48.838;9.324;2024-01-30T11:51:56;7.70;92.80
17452;DHT22;8843;48.838;9.324;2024-01-30T11:54:23;7.80;92.90
17452;DHT22;8843;48.838;9.324;2024-01-30T11:56:50;7.80;92.60
17452;DHT22;8843;48.838;9.324;2024-01-30T11:59:18;7.80;92.50
17452;DHT22;8843;48.838;9.324;2024-01-30T12:01:45;7.80;92.70
17452;DHT22;8843;48.838;9.324;2024-01-30T12:04:12;7.80;92.70
17452;DHT22;8843;48.838;9.324;2024-01-30T12:06:39;7.80;92.70
17452;DHT22;8843;48.838;9.324;2024-01-30T12:09:06;7.80;93.00
17452;DHT22;8843;48.838;9.324;2024-01-30T12:11:43;7.80;93.00
17452;DHT22;8843;48.838;9.324;2024-01-30T12:14:11;7.80;92.70
17452;DHT22;8843;48.838;9.324;2024-01-30T12:16:40;7.90;92.80
17452;DHT22;8843;48.838;9.324;2024-01-30T12:19:08;7.90;92.90
17452;DHT22;8843;48.838;9.324;2024-01-30T12:21:35;8.00;92.90
17452;DHT22;8843;48.838;9.324;2024-01-30T12:24:02;7.90;92.80
17452;DHT22;8843;48.838;9.324;2024-01-30T12:26:29;7.90;92.80
17452;DHT22;8843;48.838;9.324;2024-01-30T12:28:56;7.90;92.80
17452;DHT22;8843;48.838;9.324;2024-01-30T12:31:28;8.00;92.70
17452;DHT22;8843;48.838;9.324;2024-01-30T12:33:56;8.00;92.70
17452;DHT22;8843;48.838;9.324;2024-01-30T12:36:25;8.10;93.00
17452;DHT22;8843;48.838;9.324;2024-01-30T12:38:52;8.10;92.70
17452;DHT22;8843;48.838;9.324;2024-01-30T12:41:21;8.10;93.00
17452;DHT22;8843;48.838;9.324;2024-01-30T12:43:53;8.00;93.40
17452;DHT22;8843;48.838;9.324;2024-01-30T12:46:20;8.10;93.30
17452;DHT22;8843;48.838;9.324;2024-01-30T12:48:47;8.20;93.10
17452;DHT22;8843;48.838;9.324;2024-01-30T12:51:15;8.20;93.10
17452;DHT22;8843;48.838;9.324;2024-01-30T12:53:42;8.10;93.20
17452;DHT22;8843;48.838;9.324;2024-01-30T12:56:09;8.10;93.30
17452;DHT22;8843;48.838;9.324;2024-01-30T12:58:36;8.20;93.50
17452;DHT22;8843;48.838;9.324;2024-01-30T13:01:03;8.10;93.50
17452;DHT22;8843;48.838;9.324;2024-01-30T13:03:30;8.20;93.70
17452;DHT22;8843;48.838;9.324;2024-01-30T13:05:57;8.30;93.90
17452;DHT22;8843;48.838;9.324;2024-01-30T13:08:25;8.40;94.40
17452;DHT22;8843;48.838;9.324;2024-01-30T13:10:52;8.40;93.90
17452;DHT22;8843;48.838;9.324;2024-01-30T13:13:19;8.50;94.40
17452;DHT22;8843;48.838;9.324;2024-01-30T13:15:46;8.50;94.20
17452;DHT22;8843;48.838;9.324;2024-01-30T13:18:13;8.60;94.10
17452;DHT22;8843;48.838;9.324;2024-01-30T13:20:40;8.60;94.00
17452;DHT22;8843;48.838;9.324;2024-01-30T13:23:07;8.50;93.80
17452;DHT22;8843;48.838;9.324;2024-01-30T13:25:35;8.60;93.90
17452;DHT22;8843;48.838;9.324;2024-01-30T13:28:02;8.60;93.60
17452;DHT22;8843;48.838;9.324;2024-01-30T13:30:29;8.60;93.80
17452;DHT22;8843;48.838;9.324;2024-01-30T13:32:56;8.60;93.90
17452;DHT22;8843;48.838;9.324;2024-01-30T13:35:23;8.60;94.40
17452;DHT22;8843;48.838;9.324;2024-01-30T13:37:49;8.80;95.10
17452;DHT22;8843;48.838;9.324;2024-01-30T13:40:16;8.90;95.80
17452;DHT22;8843;48.838;9.324;2024-01-30T13:42:44;9.00;95.40
17452;DHT22;8843;48.838;9.324;2024-01-30T13:45:11;9.00;94.90
17452;DHT22;8843;48.838;9.324;2024-01-30T13:47:38;9.10;94.70
17452;DHT22;8843;48.838;9.324;2024-01-30T13:50:05;9.20;94.40
17452;DHT22;8843;48.838;9.324;2024-01-30T13:52:33;9.20;94.20
17452;DHT22;8843;48.838;9.324;2024-01-30T13:55:00;9.20;94.10
17452;DHT22;8843;48.838;9.324;2024-01-30T13:57:27;9.20;93.90
17452;DHT22;8843;48.838;9.324;2024-01-30T13:59:55;9.20;93.70
17452;DHT22;8843;48.838;9.324;2024-01-30T14:02:23;9.20;93.60
17452;DHT22;8843;48.838;9.324;2024-01-30T14:04:49;9.20;93.60
17452;DHT22;8843;48.838;9.324;2024-01-30T14:07:16;9.20;93.60
17452;DHT22;8843;48.838;9.324;2024-01-30T14:09:44;9.10;93.70
17452;DHT22;8843;48.838;9.324;2024-01-30T14:12:11;9.20;93.50
17452;DHT22;8843;48.838;9.324;2024-01-30T14:14:37;9.10;93.50
17452;DHT22;8843;48.838;9.324;2024-01-30T14:17:06;9.10;93.60
17452;DHT22;8843;48.838;9.324;2024-01-30T14:19:33;9.10;93.50
17452;DHT22;8843;48.838;9.324;2024-01-30T14:22:00;9.00;93.40
17452;DHT22;8843;48.838;9.324;2024-01-30T14:24:27;9.00;93.20
17452;DHT22;8843;48.838;9.324;2024-01-30T14:26:54;9.00;93.40
17452;DHT22;8843;48.838;9.324;2024-01-30T14:29:21;8.90;93.60
17452;DHT22;8843;48.838;9.324;2024-01-30T14:31:48;9.00;93.20
17452;DHT22;8843;48.838;9.324;2024-01-30T14:34:16;9.10;93.10
17452;DHT22;8843;48.838;9.324;2024-01-30T14:36:44;9.10;92.90
17452;DHT22;8843;48.838;9.324;2024-01-30T14:39:10;9.10;92.70
17452;DHT22;8843;48.838;9.324;2024-01-30T14:41:37;9.20;92.40
17452;DHT22;8843;48.838;9.324;2024-01-30T14:44:04;9.20;92.40
17452;DHT22;8843;48.838;9.324;2024-01-30T14:46:33;9.30;92.10
17452;DHT22;8843;48.838;9.324;2024-01-30T14:49:01;9.40;91.90
17452;DHT22;8843;48.838;9.324;2024-01-30T14:51:32;9.50;91.60
17452;DHT22;8843;48.838;9.324;2024-01-30T14:53:59;9.40;91.50
17452;DHT22;8843;48.838;9.324;2024-01-30T14:56:27;9.50;91.60
17452;DHT22;8843;48.838;9.324;2024-01-30T14:58:54;9.40;91.40
17452;DHT22;8843;48.838;9.324;2024-01-30T15:01:21;9.50;91.40
17452;DHT22;8843;48.838;9.324;2024-01-30T15:03:48;9.40;91.40
17452;DHT22;8843;48.838;9.324;2024-01-30T15:06:14;9.50;91.30
17452;DHT22;8843;48.838;9.324;2024-01-30T15:08:42;9.50;91.10
17452;DHT22;8843;48.838;9.324;2024-01-30T15:11:09;9.50;91.20
17452;DHT22;8843;48.838;9.324;2024-01-30T15:13:36;9.40;91.20
17452;DHT22;8843;48.838;9.324;2024-01-30T15:16:03;9.40;91.20
17452;DHT22;8843;48.838;9.324;2024-01-30T15:18:31;9.40;91.20
17452;DHT22;8843;48.838;9.324;2024-01-30T15:20:58;9.30;91.20
17452;DHT22;8843;48.838;9.324;2024-01-30T15:23:25;9.30;91.50
17452;DHT22;8843;48.838;9.324;2024-01-30T15:25:53;9.40;91.20
17452;DHT22;8843;48.838;9.324;2024-01-30T15:28:22;9.40;91.20
17452;DHT22;8843;48.838;9.324;2024-01-30T15:30:51;9.40;91.00
17452;DHT22;8843;48.838;9.324;2024-01-30T15:33:18;9.30;91.10
17452;DHT22;8843;48.838;9.324;2024-01-30T15:35:44;9.20;91.10
17452;DHT22;8843;48.838;9.324;2024-01-30T15:38:12;9.20;91.10
17452;DHT22;8843;48.838;9.324;2024-01-30T15:40:39;9.20;91.10
17452;DHT22;8843;48.838;9.324;2024-01-30T15:43:07;9.20;91.00
17452;DHT22;8843;48.838;9.324;2024-01-30T15:45:34;9.20;90.90
17452;DHT22;8843;48.838;9.324;2024-01-30T15:48:01;9.20;91.00
17452;DHT22;8843;48.838;9.324;2024-01-30T15:50:28;9.30;91.30
17452;DHT22;8843;48.838;9.324;2024-01-30T15:53:06;9.00;90.40
17452;DHT22;8843;48.838;9.324;2024-01-30T15:55:58;8.80;91.90
17452;DHT22;8843;48.838;9.324;2024-01-30T15:58:32;9.30;90.80
17452;DHT22;8843;48.838;9.324;2024-01-30T16:00:59;9.20;90.60
17452;DHT22;8843;48.838;9.324;2024-01-30T16:03:26;8.80;90.60